Time;durP1;ratioP1;P1;durP2;ratioP2;P2;SDS_P1;SDS_P2;PMS_P1;PMS_P2;Temp;Humidity;BMP_temperature;BMP_pressure;BME280_temperature;BME280_humidity;BME280_pressure;Samples;Min_cycle;Max_cycle;Signal;HPM_P1;HPM_P2
2023/04/26 00:01:26;;;;;;;;;;;12.10;79.40;;;-151.14;100.00;62537.16;4976089;28;19921;-86
2023/04/26 00:03:54;;;;;;;;;;;12.10;79.50;;;-151.14;100.00;62537.16;4976403;28;19952;-87
2023/04/26 00:06:23;;;;;;;;;;;12.10;79.50;;;-151.14;100.00;62537.16;4959463;28;19922;-86
2023/04/26 00:08:51;;;;;;;;;;;12.10;79.60;;;-151.14;100.00;62537.16;4960171;28;20213;-87
2023/04/26 00:11:19;;;;;;;;;;;12.10;79.60;;;-151.14;100.00;62537.16;4976032;28;19944;-87
2023/04/26 00:13:47;;;;;;;;;;;12.10;79.60;;;-151.14;100.00;62537.16;4976012;28;19922;-87
2023/04/26 00:16:15;;;;;;;;;;;12.10;79.70;;;-151.14;100.00;62537.16;4975412;28;19922;-88
2023/04/26 00:18:45;;;;;;;;;;;12.10;79.60;;;-151.14;100.00;62537.16;4975973;28;20218;-88
2023/04/26 00:21:13;;;;;;;;;;;12.10;79.70;;;-151.14;100.00;62537.16;4976091;28;19922;-87
2023/04/26 00:23:41;;;;;;;;;;;12.10;79.60;;;-151.14;100.00;62537.16;4992084;28;19922;-87
2023/04/26 00:26:09;;;;;;;;;;;12.10;79.60;;;-151.14;100.00;62537.16;4991478;28;19922;-87
2023/04/26 00:28:38;;;;;;;;;;;12.10;79.60;;;-151.14;100.00;62537.16;4975910;28;19922;-87
2023/04/26 00:31:06;;;;;;;;;;;12.10;79.60;;;-151.14;100.00;62537.16;4959703;28;20227;-87
2023/04/26 00:33:34;;;;;;;;;;;12.10;79.60;;;-151.14;100.00;62537.16;4960056;28;19932;-87
2023/04/26 00:36:03;;;;;;;;;;;12.10;79.60;;;-151.14;100.00;62537.16;4959156;28;19928;-87
2023/04/26 00:38:32;;;;;;;;;;;12.10;79.60;;;-151.14;100.00;62537.16;4959706;28;19922;-87
2023/04/26 00:41:00;;;;;;;;;;;12.10;79.60;;;-151.14;100.00;62537.16;4975754;28;20209;-87
2023/04/26 00:43:29;;;;;;;;;;;12.10;79.60;;;-151.14;100.00;62537.16;4975536;28;19929;-87
2023/04/26 00:45:57;;;;;;;;;;;12.10;79.60;;;-151.14;100.00;62537.16;4958802;28;19922;-86
2023/04/26 00:48:25;;;;;;;;;;;12.10;79.60;;;-151.14;100.00;62537.16;4975561;28;19921;-86
2023/04/26 00:50:53;;;;;;;;;;;12.10;79.60;;;-151.14;100.00;62537.16;4975488;28;19922;-87
2023/04/26 00:53:22;;;;;;;;;;;12.10;79.60;;;-151.14;100.00;62537.16;4959187;28;20236;-87
2023/04/26 00:55:53;;;;;;;;;;;12.10;80.20;;;-151.14;100.00;62537.16;4958778;28;19922;-87
2023/04/26 00:58:22;;;;;;;;;;;12.10;79.60;;;-151.14;100.00;62537.16;4975194;28;19921;-86
2023/04/26 01:00:50;;;;;;;;;;;12.10;79.60;;;-151.14;100.00;62537.16;4959128;28;19922;-87
2023/04/26 01:03:18;;;;;;;;;;;12.10;79.50;;;-151.14;100.00;62537.16;4975189;28;19921;-87
2023/04/26 01:05:46;;;;;;;;;;;12.10;79.60;;;-151.14;100.00;62537.16;4974517;28;19925;-87
2023/04/26 01:08:19;;;;;;;;;;;12.10;79.60;;;-151.14;100.00;62537.16;4974749;28;19921;-87
2023/04/26 01:10:48;;;;;;;;;;;12.10;79.60;;;-151.14;100.00;62537.16;4975181;28;19921;-87
2023/04/26 01:13:16;;;;;;;;;;;12.10;79.50;;;-151.14;100.00;62537.16;4975011;28;19922;-87
2023/04/26 01:15:45;;;;;;;;;;;12.10;79.60;;;-151.14;100.00;62537.16;4958354;28;19944;-87
2023/04/26 01:18:14;;;;;;;;;;;12.10;79.60;;;-151.14;100.00;62537.16;4974988;28;19922;-87
2023/04/26 01:20:42;;;;;;;;;;;12.10;79.60;;;-151.14;100.00;62537.16;4974957;28;19921;-86
2023/04/26 01:23:11;;;;;;;;;;;12.10;79.60;;;-151.14;100.00;62537.16;4991215;28;19922;-86
2023/04/26 01:25:39;;;;;;;;;;;12.10;79.60;;;-151.14;100.00;62537.16;4974550;28;20231;-87
2023/04/26 01:28:08;;;;;;;;;;;12.10;79.60;;;-151.14;100.00;62537.16;4974639;28;19928;-86
2023/04/26 01:30:36;;;;;;;;;;;12.10;80.40;;;-151.14;100.00;62537.16;4974832;28;20118;-87
2023/04/26 01:33:04;;;;;;;;;;;12.00;79.40;;;-151.14;100.00;62537.16;4958729;28;19922;-87
2023/04/26 01:35:32;;;;;;;;;;;12.00;79.40;;;-151.14;100.00;62537.16;4974250;28;19922;-87
2023/04/26 01:38:00;;;;;;;;;;;12.00;79.40;;;-151.14;100.00;62537.16;4948030;28;20218;-87
2023/04/26 01:40:30;;;;;;;;;;;12.10;79.50;;;-151.14;100.00;62537.16;4939631;28;19922;-87
2023/04/26 01:42:58;;;;;;;;;;;12.10;79.40;;;-151.14;100.00;62537.16;4955411;28;19922;-87
2023/04/26 01:45:29;;;;;;;;;;;12.00;79.30;;;-151.14;100.00;62537.16;4939060;28;19928;-87
2023/04/26 01:48:30;;;;;;;;;;;12.00;79.30;;;-151.14;100.00;62537.16;4963782;28;19922;-87
2023/04/26 01:50:58;;;;;;;;;;;12.00;79.30;;;-151.14;100.00;62537.16;4955460;28;20210;-88
2023/04/26 01:53:26;;;;;;;;;;;12.00;79.30;;;-151.14;100.00;62537.16;4955573;28;19929;-87
2023/04/26 01:55:56;;;;;;;;;;;12.00;79.40;;;-151.14;100.00;62537.16;4955093;28;19929;-87
2023/04/26 01:58:24;;;;;;;;;;;12.00;80.20;;;-151.14;100.00;62537.16;4955143;28;20038;-89
2023/04/26 02:00:52;;;;;;;;;;;12.00;79.40;;;-151.14;100.00;62537.16;4955455;28;20125;-87
2023/04/26 02:03:20;;;;;;;;;;;12.00;79.30;;;-151.14;100.00;62537.16;4955185;28;20214;-90
2023/04/26 02:05:48;;;;;;;;;;;12.00;79.40;;;-151.14;100.00;62537.16;4941266;28;19929;-87
2023/04/26 02:08:16;;;;;;;;;;;12.00;79.40;;;-151.14;100.00;62537.16;4942624;28;19922;-87
2023/04/26 02:10:44;;;;;;;;;;;12.00;79.40;;;-151.14;100.00;62537.16;4958721;28;20377;-87
2023/04/26 02:13:15;;;;;;;;;;;12.00;80.20;;;-151.14;100.00;62537.16;4974719;28;19922;-87
2023/04/26 02:15:46;;;;;;;;;;;12.00;79.30;;;-151.14;100.00;62537.16;4959834;28;20220;-86
2023/04/26 02:18:14;;;;;;;;;;;12.00;79.40;;;-151.14;100.00;62537.16;4961848;28;19922;-88
2023/04/26 02:20:43;;;;;;;;;;;12.00;79.30;;;-151.14;100.00;62537.16;4977898;28;19928;-88
2023/04/26 02:23:11;;;;;;;;;;;12.00;79.30;;;-151.14;100.00;62537.16;4977477;28;19922;-86
2023/04/26 02:25:40;;;;;;;;;;;12.00;79.30;;;-151.14;100.00;62537.16;4976987;28;19926;-87
2023/04/26 02:28:08;;;;;;;;;;;12.00;79.30;;;-151.14;100.00;62537.16;4960906;28;19922;-87
2023/04/26 02:30:38;;;;;;;;;;;12.00;79.30;;;-151.14;100.00;62537.16;4976796;28;20386;-87
2023/04/26 02:33:07;;;;;;;;;;;12.00;79.40;;;-151.14;100.00;62537.16;4961447;28;19928;-87
2023/04/26 02:35:35;;;;;;;;;;;12.00;79.40;;;-151.14;100.00;62537.16;4976902;28;20205;-88
2023/04/26 02:38:03;;;;;;;;;;;12.00;79.40;;;-151.14;100.00;62537.16;4977762;28;19921;-87
2023/04/26 02:40:31;;;;;;;;;;;12.00;79.40;;;-151.14;100.00;62537.16;4977337;28;19922;-87
2023/04/26 02:42:59;;;;;;;;;;;12.00;79.40;;;-151.14;100.00;62537.16;4977275;28;19926;-87
2023/04/26 02:45:27;;;;;;;;;;;12.00;79.40;;;-151.14;100.00;62537.16;4976683;28;19921;-87
2023/04/26 02:47:57;;;;;;;;;;;12.00;79.40;;;-151.14;100.00;62537.16;4961428;28;19922;-87
2023/04/26 02:50:25;;;;;;;;;;;12.00;79.40;;;-151.14;100.00;62537.16;4961220;28;19928;-89
2023/04/26 02:52:53;;;;;;;;;;;12.00;79.50;;;-151.14;100.00;62537.16;4961345;28;19922;-88
2023/04/26 02:55:22;;;;;;;;;;;12.00;79.50;;;-151.14;100.00;62537.16;4976453;28;19929;-88
2023/04/26 02:57:50;;;;;;;;;;;12.00;79.40;;;-151.14;100.00;62537.16;4977228;28;19928;-88
2023/04/26 03:00:18;;;;;;;;;;;12.00;79.30;;;-151.14;100.00;62537.16;4960978;28;20099;-88
2023/04/26 03:02:46;;;;;;;;;;;12.00;79.20;;;-151.14;100.00;62537.16;4961126;28;19993;-88
2023/04/26 03:05:15;;;;;;;;;;;12.00;79.20;;;-151.14;100.00;62537.16;4960435;28;19928;-88
2023/04/26 03:07:44;;;;;;;;;;;12.00;79.10;;;-151.14;100.00;62537.16;4993163;28;19922;-86
2023/04/26 03:10:12;;;;;;;;;;;12.00;79.20;;;-151.14;100.00;62537.16;4960903;28;19921;-88
2023/04/26 03:12:41;;;;;;;;;;;12.00;79.20;;;-151.14;100.00;62537.16;4977042;28;19928;-88
2023/04/26 03:15:10;;;;;;;;;;;12.00;79.10;;;-151.14;100.00;62537.16;4976327;28;19921;-87
2023/04/26 03:17:40;;;;;;;;;;;12.00;79.10;;;-151.14;100.00;62537.16;4969077;23;19928;-85
2023/04/26 03:20:09;;;;;;;;;;;12.00;79.00;;;-151.14;100.00;62537.16;4941582;28;19923;-86
2023/04/26 03:22:39;;;;;;;;;;;12.00;79.10;;;-151.14;100.00;62537.16;4941746;28;19930;-85
2023/04/26 03:25:08;;;;;;;;;;;12.00;78.90;;;-151.14;100.00;62537.16;4940983;28;19928;-85
2023/04/26 03:27:36;;;;;;;;;;;12.00;79.00;;;-151.14;100.00;62537.16;4959950;28;19977;-86
2023/04/26 03:30:06;;;;;;;;;;;12.00;79.00;;;-151.14;100.00;62537.16;4954474;29;20117;-85
2023/04/26 03:32:37;;;;;;;;;;;11.90;78.90;;;-151.14;100.00;62537.16;4938492;29;19923;-85
2023/04/26 03:35:06;;;;;;;;;;;12.00;78.90;;;-151.14;100.00;62537.16;4952890;28;19929;-85
2023/04/26 03:37:34;;;;;;;;;;;12.00;78.90;;;-151.14;100.00;62537.16;4957323;28;19928;-85
2023/04/26 03:40:11;;;;;;;;;;;12.00;79.00;;;-151.14;100.00;62537.16;4957442;28;20114;-85
2023/04/26 03:42:39;;;;;;;;;;;12.00;79.00;;;-151.14;100.00;62537.16;4957286;28;19930;-85
2023/04/26 03:45:08;;;;;;;;;;;12.00;79.10;;;-151.14;100.00;62537.16;4972438;28;19923;-85
2023/04/26 03:47:37;;;;;;;;;;;12.00;79.10;;;-151.14;100.00;62537.16;4957129;28;19926;-84
2023/04/26 03:50:05;;;;;;;;;;;12.00;79.10;;;-151.14;100.00;62537.16;4973291;28;19922;-85
2023/04/26 03:52:34;;;;;;;;;;;12.00;78.90;;;-151.14;100.00;62537.16;4957334;28;19922;-85
2023/04/26 03:55:03;;;;;;;;;;;12.00;79.00;;;-151.14;100.00;62537.16;4956315;28;20263;-85
2023/04/26 03:57:33;;;;;;;;;;;12.00;78.90;;;-151.14;100.00;62537.16;4956893;28;19944;-84
2023/04/26 04:00:02;;;;;;;;;;;12.00;78.90;;;-151.14;100.00;62537.16;4953806;29;20206;-85
2023/04/26 04:02:32;;;;;;;;;;;12.00;78.90;;;-151.14;100.00;62537.16;4953966;29;19923;-85
2023/04/26 04:05:00;;;;;;;;;;;12.00;79.00;;;-151.14;100.00;62537.16;4953264;29;19930;-85
2023/04/26 04:07:28;;;;;;;;;;;12.00;78.90;;;-151.14;100.00;62537.16;4937914;29;19944;-85
2023/04/26 04:09:56;;;;;;;;;;;12.00;78.90;;;-151.14;100.00;62537.16;4953691;29;20094;-85
2023/04/26 04:12:24;;;;;;;;;;;12.00;78.90;;;-151.14;100.00;62537.16;4953668;29;19928;-85
2023/04/26 04:14:54;;;;;;;;;;;12.00;78.90;;;-151.14;100.00;62537.16;4938835;28;19923;-85
2023/04/26 04:17:23;;;;;;;;;;;12.00;79.00;;;-151.14;100.00;62537.16;4953575;29;19922;-84
2023/04/26 04:19:51;;;;;;;;;;;12.00;78.90;;;-151.14;100.00;62537.16;4969594;28;20343;-84
2023/04/26 04:22:19;;;;;;;;;;;12.00;78.90;;;-151.14;100.00;62537.16;4937636;29;20349;-85
2023/04/26 04:24:47;;;;;;;;;;;12.00;78.90;;;-151.14;100.00;62537.16;4952903;29;20116;-84
2023/04/26 04:27:16;;;;;;;;;;;12.00;78.90;;;-151.14;100.00;62537.16;4937016;29;19929;-85
2023/04/26 04:29:46;;;;;;;;;;;12.00;78.90;;;-151.14;100.00;62537.16;4937522;29;19922;-85
2023/04/26 04:32:16;;;;;;;;;;;11.90;78.90;;;-151.14;100.00;62537.16;4953316;29;19929;-85
2023/04/26 04:34:44;;;;;;;;;;;11.90;79.00;;;-151.14;100.00;62537.16;4936752;29;19928;-85
2023/04/26 04:37:13;;;;;;;;;;;11.90;79.10;;;-151.14;100.00;62537.16;4937218;29;19922;-84
2023/04/26 04:39:42;;;;;;;;;;;11.90;79.00;;;-151.14;100.00;62537.16;4937389;29;20313;-85
2023/04/26 04:42:11;;;;;;;;;;;11.90;79.10;;;-151.14;100.00;62537.16;4953139;29;20134;-84
2023/04/26 04:44:40;;;;;;;;;;;11.90;79.10;;;-151.14;100.00;62537.16;4920982;29;19931;-85
2023/04/26 04:47:08;;;;;;;;;;;11.90;78.90;;;-151.14;100.00;62537.16;4921431;29;19922;-84
2023/04/26 04:49:38;;;;;;;;;;;11.90;78.90;;;-151.14;100.00;62537.16;4953265;29;19922;-85
2023/04/26 04:52:06;;;;;;;;;;;12.00;78.80;;;-151.14;100.00;62537.16;4953097;29;19923;-85
2023/04/26 04:54:35;;;;;;;;;;;11.90;78.70;;;-151.14;100.00;62537.16;4936506;29;19922;-85
2023/04/26 04:57:03;;;;;;;;;;;11.90;78.80;;;-151.14;100.00;62537.16;4952817;29;20121;-85
2023/04/26 04:59:33;;;;;;;;;;;11.90;78.80;;;-151.14;100.00;62537.16;4937146;29;19922;-86
2023/04/26 05:02:01;;;;;;;;;;;11.90;78.80;;;-151.14;100.00;62537.16;4937030;29;19945;-86
2023/04/26 05:04:32;;;;;;;;;;;11.90;78.80;;;-151.14;100.00;62537.16;4936327;29;19922;-85
2023/04/26 05:07:02;;;;;;;;;;;11.90;78.70;;;-151.14;100.00;62537.16;4936790;29;19923;-85
2023/04/26 05:09:30;;;;;;;;;;;11.90;78.80;;;-151.14;100.00;62537.16;4936743;29;20121;-85
2023/04/26 05:11:58;;;;;;;;;;;11.90;78.80;;;-151.14;100.00;62537.16;4947780;29;19929;-85
2023/04/26 05:14:27;;;;;;;;;;;11.90;79.60;;;-151.14;100.00;62537.16;4952533;29;20210;-85
2023/04/26 05:16:55;;;;;;;;;;;11.90;78.70;;;-151.14;100.00;62537.16;4933462;29;19923;-84
2023/04/26 05:19:24;;;;;;;;;;;11.90;78.70;;;-151.14;100.00;62537.16;4933765;29;19930;-86
2023/04/26 05:21:52;;;;;;;;;;;11.90;78.80;;;-151.14;100.00;62537.16;4933533;29;19922;-86
2023/04/26 05:24:22;;;;;;;;;;;11.90;78.80;;;-151.14;100.00;62537.16;4932899;29;19946;-85
2023/04/26 05:26:50;;;;;;;;;;;11.90;79.60;;;-151.14;100.00;62537.16;4917501;29;19923;-87
2023/04/26 05:29:36;;;;;;;;;;;11.90;78.90;;;-151.14;100.00;62537.16;4933669;29;20236;-86
2023/04/26 05:32:09;;;;;;;;;;;11.90;78.80;;;-151.14;100.00;62537.16;4933517;29;19930;-86
2023/04/26 05:35:03;;;;;;;;;;;11.90;78.70;;;-151.14;100.00;62537.16;4917160;29;19923;-86
2023/04/26 05:37:32;;;;;;;;;;;11.90;78.60;;;-151.14;100.00;62537.16;4933316;29;20121;-86
2023/04/26 05:40:05;;;;;;;;;;;11.90;78.60;;;-151.14;100.00;62537.16;4932705;29;19929;-86
2023/04/26 05:42:33;;;;;;;;;;;11.90;78.70;;;-151.14;100.00;62537.16;4939717;29;19929;-86
2023/04/26 05:45:02;;;;;;;;;;;11.90;79.60;;;-151.14;100.00;62537.16;4932873;29;19923;-84
2023/04/26 05:47:30;;;;;;;;;;;11.90;78.70;;;-151.14;100.00;62537.16;4933012;29;19930;-84
2023/04/26 05:49:58;;;;;;;;;;;11.90;78.70;;;-151.14;100.00;62537.16;4933291;29;19922;-83
2023/04/26 05:52:27;;;;;;;;;;;11.90;78.80;;;-151.14;100.00;62537.16;4933139;29;20419;-84
2023/04/26 05:54:55;;;;;;;;;;;11.90;78.70;;;-151.14;100.00;62537.16;4916926;29;19923;-83
2023/04/26 05:57:24;;;;;;;;;;;11.90;78.50;;;-151.14;100.00;62537.16;4933024;29;20210;-83
2023/04/26 05:59:52;;;;;;;;;;;11.90;78.50;;;-151.14;100.00;62537.16;4917620;29;19930;-83
2023/04/26 06:02:21;;;;;;;;;;;11.90;78.80;;;-151.14;100.00;62537.16;4917329;29;20234;-83
2023/04/26 06:04:50;;;;;;;;;;;11.90;78.60;;;-151.14;100.00;62537.16;4932490;29;19927;-84
2023/04/26 06:07:19;;;;;;;;;;;11.90;78.60;;;-151.14;100.00;62537.16;4932639;29;20121;-83
2023/04/26 06:09:48;;;;;;;;;;;11.90;78.70;;;-151.14;100.00;62537.16;4933082;29;19949;-84
2023/04/26 06:12:17;;;;;;;;;;;11.90;78.80;;;-151.14;100.00;62537.16;4932824;29;19930;-83
2023/04/26 06:14:48;;;;;;;;;;;11.90;78.60;;;-151.14;100.00;62537.16;4916805;29;19923;-83
2023/04/26 06:17:20;;;;;;;;;;;11.90;78.40;;;-151.14;100.00;62537.16;4943756;29;19922;-84
2023/04/26 06:19:49;;;;;;;;;;;11.90;78.50;;;-151.14;100.00;62537.16;4952082;29;19929;-85
2023/04/26 06:22:17;;;;;;;;;;;11.90;78.60;;;-151.14;100.00;62537.16;4935998;29;19922;-85
2023/04/26 06:24:45;;;;;;;;;;;11.90;78.60;;;-151.14;100.00;62537.16;4935328;29;19995;-85
2023/04/26 06:27:13;;;;;;;;;;;11.90;78.70;;;-151.14;100.00;62537.16;4951779;29;19990;-85
2023/04/26 06:29:46;;;;;;;;;;;11.90;78.70;;;-151.14;100.00;62537.16;4935965;29;19923;-85
2023/04/26 06:32:16;;;;;;;;;;;11.90;78.80;;;-151.14;100.00;62537.16;4967882;28;19938;-85
2023/04/26 06:34:44;;;;;;;;;;;11.90;78.60;;;-151.14;100.00;62537.16;4951322;29;19945;-85
2023/04/26 06:37:12;;;;;;;;;;;11.90;78.90;;;-151.14;100.00;62537.16;4937347;29;20198;-84
2023/04/26 06:39:43;;;;;;;;;;;11.90;79.60;;;-151.14;100.00;62537.16;4951780;29;19922;-85
2023/04/26 06:42:13;;;;;;;;;;;11.90;78.60;;;-151.14;100.00;62537.16;4920209;29;19922;-84
2023/04/26 06:45:16;;;;;;;;;;;11.90;78.40;;;-151.14;100.00;62537.16;4877978;29;20017;-84
2023/04/26 06:47:47;;;;;;;;;;;11.90;78.80;;;-151.14;100.00;62537.16;4924976;29;20240;-85
2023/04/26 06:50:15;;;;;;;;;;;11.90;79.00;;;-151.14;100.00;62537.16;4951734;29;19938;-86
2023/04/26 06:52:43;;;;;;;;;;;11.90;78.50;;;-151.14;100.00;62537.16;4938943;29;19923;-84
2023/04/26 06:55:11;;;;;;;;;;;11.90;78.40;;;-151.14;100.00;62537.16;4954263;29;19929;-85
2023/04/26 06:57:40;;;;;;;;;;;11.90;78.60;;;-151.14;100.00;62537.16;4955816;29;19929;-85
2023/04/26 07:00:09;;;;;;;;;;;11.90;78.80;;;-151.14;100.00;62537.16;4923095;29;19944;-85
2023/04/26 07:02:37;;;;;;;;;;;11.90;78.50;;;-151.14;100.00;62537.16;4922938;29;20117;-85
2023/04/26 07:05:08;;;;;;;;;;;11.90;78.50;;;-151.14;100.00;62537.16;4938317;29;20213;-85
2023/04/26 07:07:36;;;;;;;;;;;11.90;78.50;;;-151.14;100.00;62537.16;4940425;29;19922;-86
2023/04/26 07:10:05;;;;;;;;;;;11.90;78.30;;;-151.14;100.00;62537.16;4957085;29;20099;-85
2023/04/26 07:12:33;;;;;;;;;;;11.90;78.80;;;-151.14;100.00;62537.16;4939945;29;20118;-85
2023/04/26 07:15:01;;;;;;;;;;;11.90;78.60;;;-151.14;100.00;62537.16;4955441;29;19922;-85
2023/04/26 07:17:29;;;;;;;;;;;11.90;78.30;;;-151.14;100.00;62537.16;4936830;29;20236;-86
2023/04/26 07:19:57;;;;;;;;;;;11.90;78.50;;;-151.14;100.00;62537.16;4936632;29;19931;-85
2023/04/26 07:22:26;;;;;;;;;;;11.90;78.80;;;-151.14;100.00;62537.16;4920484;29;19929;-86
2023/04/26 07:24:55;;;;;;;;;;;11.90;78.50;;;-151.14;100.00;62537.16;4939839;28;20260;-85
2023/04/26 07:27:23;;;;;;;;;;;11.90;78.60;;;-151.14;100.00;62537.16;4939255;29;19922;-86
2023/04/26 07:29:53;;;;;;;;;;;11.90;78.90;;;-151.14;100.00;62537.16;4936239;29;19922;-85
2023/04/26 07:32:22;;;;;;;;;;;11.90;79.00;;;-151.14;100.00;62537.16;4935510;29;19923;-85
2023/04/26 07:34:50;;;;;;;;;;;11.90;78.80;;;-151.14;100.00;62537.16;4934854;29;19923;-84
2023/04/26 07:37:18;;;;;;;;;;;11.90;78.70;;;-151.14;100.00;62537.16;4935054;29;19929;-85
2023/04/26 07:39:47;;;;;;;;;;;11.90;78.80;;;-151.14;100.00;62537.16;4935217;29;19923;-85
2023/04/26 07:42:15;;;;;;;;;;;11.90;78.90;;;-151.14;100.00;62537.16;4951023;29;20114;-84
2023/04/26 07:44:43;;;;;;;;;;;12.00;78.70;;;-151.14;100.00;62537.16;4934473;29;19929;-84
2023/04/26 07:47:13;;;;;;;;;;;12.00;78.70;;;-151.14;100.00;62537.16;4934890;29;19922;-85
2023/04/26 07:49:41;;;;;;;;;;;12.00;79.00;;;-151.14;100.00;62537.16;4950866;29;19923;-85
2023/04/26 07:52:09;;;;;;;;;;;12.00;78.90;;;-151.14;100.00;62537.16;4919031;29;19930;-85
2023/04/26 07:54:38;;;;;;;;;;;12.00;79.90;;;-151.14;100.00;62537.16;4950319;29;19923;-85
2023/04/26 07:57:08;;;;;;;;;;;12.00;78.60;;;-151.14;100.00;62537.16;4934820;29;19938;-85
2023/04/26 07:59:36;;;;;;;;;;;12.00;78.80;;;-151.14;100.00;62537.16;4918871;29;19929;-85
2023/04/26 08:02:04;;;;;;;;;;;12.00;78.50;;;-151.14;100.00;62537.16;4934282;29;19929;-85
2023/04/26 08:04:33;;;;;;;;;;;12.00;78.70;;;-151.14;100.00;62537.16;4935424;29;20203;-85
2023/04/26 08:07:01;;;;;;;;;;;12.00;78.60;;;-151.14;100.00;62537.16;4950322;29;20401;-85
2023/04/26 08:09:29;;;;;;;;;;;12.00;78.70;;;-151.14;100.00;62537.16;4918719;29;20264;-85
2023/04/26 08:11:57;;;;;;;;;;;12.00;78.80;;;-151.14;100.00;62537.16;4934734;29;20125;-85
2023/04/26 08:14:28;;;;;;;;;;;12.00;78.70;;;-151.14;100.00;62537.16;4949891;29;20130;-86
2023/04/26 08:16:56;;;;;;;;;;;12.00;78.70;;;-151.14;100.00;62537.16;4953515;29;19935;-85
2023/04/26 08:19:25;;;;;;;;;;;12.00;78.70;;;-151.14;100.00;62537.16;4953582;29;20195;-85
2023/04/26 08:21:53;;;;;;;;;;;12.00;78.90;;;-151.14;100.00;62537.16;4953422;29;19929;-84
2023/04/26 08:24:21;;;;;;;;;;;12.00;78.80;;;-151.14;100.00;62537.16;4936850;29;20197;-86
2023/04/26 08:26:49;;;;;;;;;;;12.00;78.80;;;-151.14;100.00;62537.16;4937532;29;19922;-85
2023/04/26 08:29:17;;;;;;;;;;;12.10;79.10;;;-151.14;100.00;62537.16;4953369;29;19929;-85
2023/04/26 08:31:47;;;;;;;;;;;12.10;79.10;;;-151.14;100.00;62537.16;4937542;29;19922;-84
2023/04/26 08:34:15;;;;;;;;;;;12.10;79.00;;;-151.14;100.00;62537.16;4952672;29;19922;-85
2023/04/26 08:36:44;;;;;;;;;;;12.10;79.10;;;-151.14;100.00;62537.16;4954528;29;20114;-85
2023/04/26 08:39:12;;;;;;;;;;;12.10;79.00;;;-151.14;100.00;62537.16;4953197;29;19945;-85
2023/04/26 08:41:43;;;;;;;;;;;12.10;79.00;;;-151.14;100.00;62537.16;4954261;29;20121;-85
2023/04/26 08:44:11;;;;;;;;;;;12.10;78.90;;;-151.14;100.00;62537.16;4952514;29;19923;-85
2023/04/26 08:46:47;;;;;;;;;;;12.10;78.60;;;-151.14;100.00;62537.16;4937138;29;20122;-85
2023/04/26 08:49:20;;;;;;;;;;;12.10;78.70;;;-151.14;100.00;62537.16;4937131;29;19929;-85
2023/04/26 08:51:48;;;;;;;;;;;12.10;78.40;;;-151.14;100.00;62537.16;4937160;29;19937;-85
2023/04/26 08:54:17;;;;;;;;;;;12.10;78.50;;;-151.14;100.00;62537.16;4936574;29;19922;-85
2023/04/26 08:56:45;;;;;;;;;;;12.10;78.50;;;-151.14;100.00;62537.16;4921045;29;19922;-84
2023/04/26 08:59:13;;;;;;;;;;;12.20;78.50;;;-151.14;100.00;62537.16;4952820;29;19923;-84
2023/04/26 09:01:41;;;;;;;;;;;12.20;78.50;;;-151.14;100.00;62537.16;4953255;29;19922;-85
2023/04/26 09:04:10;;;;;;;;;;;12.10;78.40;;;-151.14;100.00;62537.16;4953375;29;19923;-85
2023/04/26 09:06:39;;;;;;;;;;;12.20;78.30;;;-151.14;100.00;62537.16;4952696;29;19922;-85
2023/04/26 09:09:08;;;;;;;;;;;12.20;78.40;;;-151.14;100.00;62537.16;4936747;29;19931;-85
2023/04/26 09:11:54;;;;;;;;;;;12.20;78.40;;;-151.14;100.00;62537.16;4952870;29;20145;-85
2023/04/26 09:14:22;;;;;;;;;;;12.20;78.50;;;-151.14;100.00;62537.16;4935093;29;19929;-85
2023/04/26 09:16:50;;;;;;;;;;;12.20;78.40;;;-151.14;100.00;62537.16;4901885;23;1996135;-88
2023/04/26 09:19:19;;;;;;;;;;;12.20;78.50;;;-151.14;100.00;62537.16;4955913;28;19928;-88
2023/04/26 09:21:48;;;;;;;;;;;12.20;78.50;;;-151.14;100.00;62537.16;4987729;28;19922;-88
2023/04/26 09:24:16;;;;;;;;;;;12.20;78.50;;;-151.14;100.00;62537.16;4971262;28;19922;-87
2023/04/26 09:26:44;;;;;;;;;;;12.10;78.60;;;-151.14;100.00;62537.16;4955705;28;19928;-87
2023/04/26 09:29:13;;;;;;;;;;;12.10;78.40;;;-151.14;100.00;62537.16;4955699;28;19928;-87
2023/04/26 09:31:43;;;;;;;;;;;12.10;78.30;;;-151.14;100.00;62537.16;4971797;28;19922;-87
2023/04/26 09:34:11;;;;;;;;;;;12.20;78.30;;;-151.14;100.00;62537.16;4954930;28;19928;-88
2023/04/26 09:36:55;;;;;;;;;;;12.20;78.30;;;-151.14;100.00;62537.16;4987846;28;19922;-89
2023/04/26 09:39:33;;;;;;;;;;;12.20;78.40;;;-151.14;100.00;62537.16;4955684;28;19929;-87
2023/04/26 09:42:02;;;;;;;;;;;12.20;78.40;;;-151.14;100.00;62537.16;4971675;28;19922;-87
2023/04/26 09:44:31;;;;;;;;;;;12.20;78.30;;;-151.14;100.00;62537.16;4970898;28;19922;-88
2023/04/26 09:47:03;;;;;;;;;;;12.20;78.30;;;-151.14;100.00;62537.16;4971454;28;20213;-87
2023/04/26 09:49:32;;;;;;;;;;;12.20;78.30;;;-151.14;100.00;62537.16;4955604;28;20094;-87
2023/04/26 09:52:02;;;;;;;;;;;12.20;78.10;;;-151.14;100.00;62537.16;4955573;28;19928;-87
2023/04/26 09:54:44;;;;;;;;;;;12.20;78.40;;;-151.14;100.00;62537.16;4970820;28;19922;-88
2023/04/26 09:57:12;;;;;;;;;;;12.20;78.40;;;-151.14;100.00;62537.16;4971422;28;19956;-88
2023/04/26 09:59:44;;;;;;;;;;;12.20;78.40;;;-151.14;100.00;62537.16;4987553;28;19923;-88
2023/04/26 10:02:20;;;;;;;;;;;12.20;78.40;;;-151.14;100.00;62537.16;4955279;28;19922;-89
2023/04/26 10:04:50;;;;;;;;;;;12.20;78.40;;;-151.14;100.00;62537.16;4986936;28;19923;-88
2023/04/26 10:07:20;;;;;;;;;;;12.20;78.30;;;-151.14;100.00;62537.16;4971130;28;19922;-87
2023/04/26 10:09:48;;;;;;;;;;;12.20;78.30;;;-151.14;100.00;62537.16;4955133;28;19929;-87
2023/04/26 10:12:17;;;;;;;;;;;12.20;78.40;;;-151.14;100.00;62537.16;4955525;28;19922;-88
2023/04/26 10:14:46;;;;;;;;;;;12.20;78.40;;;-151.14;100.00;62537.16;4954446;28;19929;-87
2023/04/26 10:17:14;;;;;;;;;;;12.20;78.50;;;-151.14;100.00;62537.16;4955151;28;19922;-87
2023/04/26 10:19:43;;;;;;;;;;;12.20;78.50;;;-151.14;100.00;62537.16;4955089;28;19929;-88
2023/04/26 10:22:15;;;;;;;;;;;12.10;78.60;;;-151.14;100.00;62537.16;4971173;28;19922;-88
2023/04/26 10:24:45;;;;;;;;;;;12.10;78.40;;;-151.14;100.00;62537.16;4954579;28;19923;-88
2023/04/26 10:27:13;;;;;;;;;;;12.10;78.50;;;-151.14;100.00;62537.16;4973599;28;19922;-87
2023/04/26 10:30:09;;;;;;;;;;;12.10;78.40;;;-151.14;100.00;62537.16;4958283;28;19928;-88
2023/04/26 10:33:16;;;;;;;;;;;12.10;78.40;;;-151.14;100.00;62537.16;4952126;28;19922;-88
2023/04/26 10:36:10;;;;;;;;;;;12.10;78.50;;;-151.14;100.00;62537.16;4957846;28;19949;-88
2023/04/26 10:38:40;;;;;;;;;;;12.10;78.60;;;-151.14;100.00;62537.16;4974315;28;19922;-88
2023/04/26 10:41:34;;;;;;;;;;;12.10;78.60;;;-151.14;100.00;62537.16;4974316;28;20256;-88
2023/04/26 10:44:37;;;;;;;;;;;12.10;78.70;;;-151.14;100.00;62537.16;4972226;28;20117;-87
2023/04/26 10:47:05;;;;;;;;;;;12.10;78.70;;;-151.14;100.00;62537.16;4958359;28;19922;-88
2023/04/26 10:49:44;;;;;;;;;;;12.10;78.70;;;-151.14;100.00;62537.16;4974137;28;19923;-88
2023/04/26 10:52:13;;;;;;;;;;;12.10;78.80;;;-151.14;100.00;62537.16;4974134;28;19922;-87
2023/04/26 10:54:52;;;;;;;;;;;12.10;78.80;;;-151.14;100.00;62537.16;4973512;28;19944;-88
2023/04/26 10:57:22;;;;;;;;;;;12.10;78.80;;;-151.14;100.00;62537.16;4957891;28;20236;-87
2023/04/26 11:00:25;;;;;;;;;;;12.10;78.80;;;-151.14;100.00;62537.16;4973974;28;19923;-87
2023/04/26 11:02:55;;;;;;;;;;;12.10;78.90;;;-151.14;100.00;62537.16;4973894;28;19922;-87
2023/04/26 11:05:41;;;;;;;;;;;12.00;79.00;;;-151.14;100.00;62537.16;4973263;28;19922;-87
2023/04/26 11:08:15;;;;;;;;;;;12.00;79.00;;;-151.14;100.00;62537.16;4973850;28;19923;-87